Terminal Aerodrome Forecast
Issued by NWS Atlanta, GA

Home | Current Version | Previous Version | Text Only | Print | Product List | Glossary On
Versions: 1 2 3 4 5 6 7 8 9 10 11 12 13 14
000
FTUS42 KFFC 270520
TAFCSG
TAF
KCSG 270520Z 2706/2806 00000KT P6SM SCT150
     FM271400 14003KT P6SM BKN120
     FM280000 VRB03KT P6SM -RA BKN050 OVC150=

USA.gov is the U.S. government's official web portal to all federal, state and local government web resources and services.